createdAt,value
2018-09-24T00:00:15.701Z,78.33
2018-09-24T00:02:51.243Z,78.38
2018-09-24T00:05:28.151Z,78.57
2018-09-24T00:08:04.280Z,78.23
2018-09-24T00:10:41.032Z,78.48
2018-09-24T00:13:17.574Z,78.49
2018-09-24T00:15:56.223Z,78.35
2018-09-24T00:18:34.916Z,78.41
2018-09-24T00:21:12.579Z,78.45
2018-09-24T00:23:51.973Z,78.41
2018-09-24T00:26:30.467Z,78.38
2018-09-24T00:29:10.439Z,78.41
2018-09-24T00:31:49.036Z,78.53
2018-09-24T00:34:26.008Z,78.68
2018-09-24T00:37:05.921Z,78.14
2018-09-24T00:39:43.686Z,78.41
2018-09-24T00:42:22.364Z,77.86
2018-09-24T00:45:05.409Z,77.86
2018-09-24T00:47:44.250Z,77.95
2018-09-24T00:50:21.943Z,78.18
2018-09-24T00:52:52.122Z,77.71
2018-09-24T00:55:21.810Z,77.68
2018-09-24T00:57:51.584Z,77.85
2018-09-24T01:00:21.284Z,77.76
2018-09-24T01:02:53.969Z,78.04
2018-09-24T01:05:23.834Z,77.93
2018-09-24T01:07:54.005Z,78.52
2018-09-24T01:10:23.864Z,78.49
2018-09-24T01:12:53.593Z,78.69
2018-09-24T01:15:23.318Z,78.76
2018-09-24T01:17:53.072Z,78.89
2018-09-24T01:20:22.870Z,78.51
2018-09-24T01:22:52.583Z,78.96
2018-09-24T01:25:22.363Z,78.85
2018-09-24T01:27:52.191Z,79.16
2018-09-24T01:30:22.016Z,78.76
2018-09-24T01:32:51.658Z,79.00
2018-09-24T01:35:21.413Z,79.12
2018-09-24T01:37:51.288Z,78.73
2018-09-24T01:40:21.055Z,78.92
2018-09-24T01:42:50.830Z,78.82
2018-09-24T01:45:20.619Z,78.87
2018-09-24T01:47:50.358Z,78.43
2018-09-24T01:50:20.359Z,78.01
2018-09-24T01:52:50.274Z,77.88
2018-09-24T01:55:19.966Z,77.94
2018-09-24T01:57:49.822Z,78.02
2018-09-24T02:00:19.507Z,78.22
2018-09-24T02:02:49.334Z,77.99
2018-09-24T02:05:18.928Z,77.52
2018-09-24T02:07:48.605Z,77.66
2018-09-24T02:10:27.381Z,77.71
2018-09-24T02:12:58.368Z,77.33
2018-09-24T02:15:32.972Z,77.02
2018-09-24T02:18:02.983Z,77.34
2018-09-24T02:20:33.513Z,77.40
2018-09-24T02:23:03.184Z,77.51
2018-09-24T02:25:33.027Z,77.62
2018-09-24T02:28:03.033Z,77.30
2018-09-24T02:30:32.798Z,77.53
2018-09-24T02:33:08.304Z,77.53
2018-09-24T02:35:37.996Z,77.45
2018-09-24T02:38:08.046Z,77.12
2018-09-24T02:40:37.802Z,76.91
2018-09-24T02:43:11.292Z,76.85
2018-09-24T02:45:40.937Z,76.35
2018-09-24T02:48:10.544Z,76.32
2018-09-24T02:50:40.766Z,75.72
2018-09-24T02:53:10.508Z,75.71
2018-09-24T02:55:40.234Z,75.59
2018-09-24T02:58:16.515Z,75.67
2018-09-24T03:00:46.278Z,75.28
2018-09-24T03:03:15.877Z,75.10
2018-09-24T03:05:45.692Z,74.76
2018-09-24T03:08:15.553Z,74.94
2018-09-24T03:10:45.120Z,75.03
2018-09-24T03:13:14.808Z,74.88
2018-09-24T03:15:44.402Z,74.91
2018-09-24T03:18:14.036Z,75.08
2018-09-24T03:20:44.689Z,75.38
2018-09-24T03:23:14.574Z,75.64
2018-09-24T03:25:44.143Z,75.52
2018-09-24T03:28:13.785Z,75.58
2018-09-24T03:30:43.771Z,75.86
2018-09-24T03:33:13.598Z,75.77
2018-09-24T03:35:43.315Z,75.82
2018-09-24T03:38:12.915Z,76.16
2018-09-24T03:40:42.453Z,75.86
2018-09-24T03:43:12.038Z,75.98
2018-09-24T03:45:41.752Z,75.58
2018-09-24T03:48:11.349Z,75.66
2018-09-24T03:50:40.929Z,76.05
2018-09-24T03:53:10.770Z,76.26
2018-09-24T03:55:40.362Z,76.20
2018-09-24T03:58:09.958Z,76.60
2018-09-24T04:00:39.616Z,76.55
2018-09-24T04:03:09.558Z,76.69
2018-09-24T04:05:44.485Z,77.01
2018-09-24T04:08:19.259Z,76.79
2018-09-24T04:10:54.105Z,76.68
2018-09-24T04:13:28.732Z,76.95
2018-09-24T04:16:03.407Z,76.90
2018-09-24T04:18:38.410Z,77.38
2018-09-24T04:21:13.147Z,77.67
2018-09-24T04:23:47.884Z,77.88
2018-09-24T04:26:22.824Z,78.09
2018-09-24T04:28:57.462Z,77.76
2018-09-24T04:31:33.150Z,77.80
2018-09-24T04:34:07.881Z,77.60
2018-09-24T04:36:43.606Z,77.65
2018-09-24T04:39:18.280Z,78.00
2018-09-24T04:41:53.110Z,77.93
2018-09-24T04:44:27.703Z,77.57
2018-09-24T04:47:02.446Z,77.76
2018-09-24T04:49:37.143Z,78.03
2018-09-24T04:52:11.841Z,78.17
2018-09-24T04:54:46.891Z,77.97
2018-09-24T04:57:21.573Z,78.33
2018-09-24T04:59:56.597Z,78.01
2018-09-24T05:02:31.338Z,78.05
2018-09-24T05:05:06.098Z,77.86
2018-09-24T05:07:40.942Z,77.70
2018-09-24T05:10:15.807Z,77.99
2018-09-24T05:12:50.421Z,78.01
2018-09-24T05:15:25.169Z,77.95
2018-09-24T05:17:59.915Z,77.94
2018-09-24T05:20:34.621Z,77.69
2018-09-24T05:23:09.280Z,78.31
2018-09-24T05:25:44.144Z,78.35
2018-09-24T05:28:19.004Z,78.43
2018-09-24T05:30:53.763Z,78.36
2018-09-24T05:33:28.942Z,78.35
2018-09-24T05:36:03.638Z,78.03
2018-09-24T05:38:38.386Z,77.78
2018-09-24T05:41:13.120Z,77.57
2018-09-24T05:43:47.961Z,77.81
2018-09-24T05:46:22.730Z,78.03
2018-09-24T05:48:57.431Z,78.03
2018-09-24T05:51:32.062Z,77.87
2018-09-24T05:54:06.962Z,78.01
2018-09-24T05:56:41.601Z,78.23
2018-09-24T05:59:16.306Z,78.21
2018-09-24T06:01:50.828Z,78.22
2018-09-24T06:04:25.499Z,78.18
2018-09-24T06:07:00.308Z,78.20
2018-09-24T06:09:35.153Z,77.90
2018-09-24T06:12:09.822Z,77.79
2018-09-24T06:14:45.041Z,77.76
2018-09-24T06:17:19.786Z,77.42
2018-09-24T06:19:54.554Z,77.41
2018-09-24T06:22:29.246Z,77.37
2018-09-24T06:25:04.202Z,77.30
2018-09-24T06:27:38.993Z,77.19
2018-09-24T06:30:13.890Z,76.82
2018-09-24T06:32:48.691Z,77.02
2018-09-24T06:35:23.425Z,77.39
2018-09-24T06:37:58.314Z,77.14
2018-09-24T06:40:33.061Z,77.61
2018-09-24T06:43:07.937Z,78.10
2018-09-24T06:45:42.622Z,78.01
2018-09-24T06:48:17.421Z,77.92
2018-09-24T06:50:52.184Z,77.77
2018-09-24T06:53:26.911Z,78.25
2018-09-24T06:56:01.736Z,78.16
2018-09-24T06:58:36.426Z,78.11
2018-09-24T07:01:11.747Z,78.15
2018-09-24T07:03:46.391Z,78.03
2018-09-24T07:06:21.187Z,78.07
2018-09-24T07:08:56.058Z,77.87
2018-09-24T07:11:30.773Z,77.91
2018-09-24T07:14:05.710Z,77.80
2018-09-24T07:16:40.426Z,77.44
2018-09-24T07:19:15.527Z,76.97
2018-09-24T07:21:50.303Z,76.85
2018-09-24T07:24:24.989Z,76.89
2018-09-24T07:26:59.911Z,76.50
2018-09-24T07:29:34.544Z,76.01
2018-09-24T07:32:09.082Z,75.52
2018-09-24T07:34:43.950Z,75.14
2018-09-24T07:37:18.875Z,73.69
2018-09-24T07:39:53.627Z,73.47
2018-09-24T07:42:28.503Z,73.11
2018-09-24T07:45:03.018Z,73.60
2018-09-24T07:47:37.867Z,72.96
2018-09-24T07:50:12.554Z,72.46
2018-09-24T07:52:47.293Z,72.41
2018-09-24T07:55:22.109Z,72.21
2018-09-24T07:57:56.987Z,71.91
2018-09-24T08:00:31.603Z,71.10
2018-09-24T08:03:06.229Z,71.32
2018-09-24T08:05:40.938Z,71.79
2018-09-24T08:08:15.677Z,71.56
2018-09-24T08:10:50.486Z,71.17
2018-09-24T08:13:25.338Z,71.43
2018-09-24T08:16:00.100Z,70.95
2018-09-24T08:18:34.751Z,70.88
2018-09-24T08:21:09.563Z,71.24
2018-09-24T08:23:44.635Z,71.10
2018-09-24T08:26:19.352Z,70.45
2018-09-24T08:28:53.991Z,70.15
2018-09-24T08:31:28.726Z,69.94
2018-09-24T08:34:03.383Z,69.86
2018-09-24T08:36:38.206Z,69.08
2018-09-24T08:39:13.492Z,69.23
2018-09-24T08:41:48.295Z,69.17
2018-09-24T08:44:23.122Z,69.28
2018-09-24T08:46:57.780Z,70.80
2018-09-24T08:49:32.900Z,71.04
2018-09-24T08:52:07.704Z,72.47
2018-09-24T08:54:42.516Z,73.47
2018-09-24T08:57:17.487Z,73.71
2018-09-24T08:59:52.123Z,73.61
2018-09-24T09:02:26.952Z,73.70
2018-09-24T09:05:01.811Z,74.13
2018-09-24T09:07:36.704Z,73.77
2018-09-24T09:10:11.745Z,73.97
2018-09-24T09:12:46.460Z,73.58
2018-09-24T09:15:21.653Z,73.40
2018-09-24T09:17:56.487Z,73.98
2018-09-24T09:20:31.255Z,74.34
2018-09-24T09:23:06.157Z,74.01
2018-09-24T09:25:41.738Z,73.75
2018-09-24T09:28:16.542Z,73.95
2018-09-24T09:30:51.362Z,73.23
2018-09-24T09:33:26.111Z,73.04
2018-09-24T09:36:01.232Z,73.29
2018-09-24T09:38:36.065Z,71.66
2018-09-24T09:41:11.645Z,71.08
2018-09-24T09:43:46.503Z,69.84
2018-09-24T09:46:21.183Z,69.42
2018-09-24T09:48:56.084Z,68.49
2018-09-24T09:51:30.718Z,66.09
2018-09-24T09:54:05.483Z,65.94
2018-09-24T09:56:40.302Z,65.94
2018-09-24T09:59:15.181Z,63.87
2018-09-24T10:01:49.923Z,64.58
2018-09-24T10:04:24.582Z,63.32
2018-09-24T10:06:59.321Z,62.41
2018-09-24T10:09:34.090Z,62.32
2018-09-24T10:12:09.601Z,62.56
2018-09-24T10:14:44.495Z,62.82
2018-09-24T10:17:19.261Z,61.80
2018-09-24T10:19:53.882Z,60.94
2018-09-24T10:22:28.652Z,60.88
2018-09-24T10:25:03.492Z,61.14
2018-09-24T10:27:38.394Z,61.04
2018-09-24T10:30:13.122Z,61.07
2018-09-24T10:32:47.906Z,60.30
2018-09-24T10:35:22.605Z,60.29
2018-09-24T10:37:57.259Z,60.65
2018-09-24T10:40:32.021Z,61.11
2018-09-24T10:43:08.139Z,60.55
2018-09-24T10:45:42.925Z,59.53
2018-09-24T10:48:17.736Z,59.16
2018-09-24T10:50:59.286Z,58.81
2018-09-24T10:53:33.989Z,58.44
2018-09-24T10:56:08.662Z,58.57
2018-09-24T10:58:43.366Z,59.60
2018-09-24T11:01:18.395Z,60.81
2018-09-24T11:03:53.070Z,62.91
2018-09-24T11:06:27.713Z,64.87
2018-09-24T11:09:02.322Z,65.64
2018-09-24T11:11:36.913Z,65.78
2018-09-24T11:14:11.685Z,65.84
2018-09-24T11:16:46.702Z,66.05
2018-09-24T11:19:21.246Z,65.79
2018-09-24T11:21:56.070Z,66.71
2018-09-24T11:24:30.766Z,66.16
2018-09-24T11:27:05.623Z,66.55
2018-09-24T11:29:40.537Z,67.15
2018-09-24T11:32:15.158Z,67.29
2018-09-24T11:34:49.926Z,66.95
2018-09-24T11:37:24.622Z,66.64
2018-09-24T11:39:59.714Z,66.69
2018-09-24T11:42:34.681Z,65.43
2018-09-24T11:45:09.242Z,64.32
2018-09-24T11:47:43.994Z,64.85
2018-09-24T11:50:18.995Z,63.35
2018-09-24T11:52:53.818Z,62.99
2018-09-24T11:55:28.661Z,61.50
2018-09-24T11:58:03.403Z,59.27
2018-09-24T12:00:38.086Z,58.85
2018-09-24T12:03:12.844Z,58.05
2018-09-24T12:05:47.589Z,58.32
2018-09-24T12:08:22.231Z,57.79
2018-09-24T12:10:56.916Z,58.24
2018-09-24T12:13:31.584Z,59.22
2018-09-24T12:16:06.729Z,60.25
2018-09-24T12:18:41.356Z,61.60
2018-09-24T12:21:16.146Z,60.40
2018-09-24T12:23:50.929Z,59.28
2018-09-24T12:26:25.600Z,56.60
2018-09-24T12:29:00.290Z,56.62
2018-09-24T12:31:35.084Z,55.71
2018-09-24T12:34:09.818Z,54.20
2018-09-24T12:36:44.704Z,53.10
2018-09-24T12:39:19.353Z,52.32
2018-09-24T12:41:54.171Z,50.74
2018-09-24T12:44:29.192Z,50.91
2018-09-24T12:47:03.853Z,50.04
2018-09-24T12:49:38.777Z,50.25
2018-09-24T12:52:14.412Z,50.01
2018-09-24T12:54:49.112Z,51.68
2018-09-24T12:57:23.926Z,50.76
2018-09-24T12:59:58.577Z,51.12
2018-09-24T13:02:34.120Z,52.01
2018-09-24T13:05:09.069Z,53.27
2018-09-24T13:07:44.061Z,53.38
2018-09-24T13:10:18.754Z,53.88
2018-09-24T13:12:53.449Z,52.33
2018-09-24T13:15:28.304Z,50.62
2018-09-24T13:18:02.983Z,48.24
2018-09-24T13:20:37.706Z,47.74
2018-09-24T13:23:12.406Z,47.91
2018-09-24T13:25:47.176Z,52.74
2018-09-24T13:28:21.731Z,57.15
2018-09-24T13:30:57.221Z,59.98
2018-09-24T13:33:31.879Z,58.29
2018-09-24T13:36:06.609Z,57.86
2018-09-24T13:38:41.436Z,55.98
2018-09-24T13:41:16.245Z,55.08
2018-09-24T13:43:51.012Z,54.53
2018-09-24T13:46:25.792Z,53.93
2018-09-24T13:49:03.141Z,53.89
2018-09-24T13:51:37.867Z,52.55
2018-09-24T13:54:12.574Z,50.82
2018-09-24T13:56:47.443Z,48.97
2018-09-24T13:59:22.252Z,47.37
2018-09-24T14:01:56.938Z,47.02
2018-09-24T14:04:31.777Z,45.80
2018-09-24T14:07:06.661Z,45.34
2018-09-24T14:09:41.280Z,46.92
2018-09-24T14:12:16.531Z,49.21
2018-09-24T14:14:51.366Z,50.71
2018-09-24T14:17:26.153Z,52.02
2018-09-24T14:20:01.116Z,54.73
2018-09-24T14:22:35.927Z,52.54
2018-09-24T14:25:12.340Z,50.48
2018-09-24T14:27:47.192Z,50.42
2018-09-24T14:30:22.571Z,50.59
2018-09-24T14:32:58.075Z,52.77
2018-09-24T14:35:32.876Z,53.50
2018-09-24T14:38:07.649Z,53.80
2018-09-24T14:40:42.462Z,53.43
2018-09-24T14:43:17.893Z,53.91
2018-09-24T14:45:52.823Z,53.97
2018-09-24T14:48:29.082Z,54.91
2018-09-24T14:51:03.858Z,55.97
2018-09-24T14:53:38.745Z,53.89
2018-09-24T14:56:13.763Z,51.59
2018-09-24T14:58:48.552Z,50.07
2018-09-24T15:01:23.255Z,48.38
2018-09-24T15:03:58.182Z,47.30
2018-09-24T15:06:32.833Z,44.81
2018-09-24T15:09:07.550Z,44.28
2018-09-24T15:11:42.300Z,42.32
2018-09-24T15:14:17.254Z,40.43
2018-09-24T15:16:51.826Z,39.72
2018-09-24T15:19:26.467Z,38.62
2018-09-24T15:22:01.412Z,37.07
2018-09-24T15:24:36.010Z,38.50
2018-09-24T15:27:11.652Z,36.79
2018-09-24T15:29:46.542Z,36.73
2018-09-24T15:32:21.414Z,36.16
2018-09-24T15:34:56.262Z,34.71
2018-09-24T15:37:30.942Z,33.54
2018-09-24T15:40:05.656Z,33.99
2018-09-24T15:42:40.416Z,34.21
2018-09-24T15:45:15.122Z,34.54
2018-09-24T15:47:50.004Z,33.22
2018-09-24T15:50:24.637Z,33.25
2018-09-24T15:52:59.368Z,33.13
2018-09-24T15:55:34.128Z,33.70
2018-09-24T15:58:08.989Z,33.41
2018-09-24T16:00:43.642Z,34.51
2018-09-24T16:03:18.790Z,36.78
2018-09-24T16:05:53.522Z,39.48
2018-09-24T16:08:28.270Z,42.02
2018-09-24T16:11:02.958Z,44.42
2018-09-24T16:13:37.707Z,45.59
2018-09-24T16:16:12.814Z,46.75
2018-09-24T16:18:47.716Z,48.37
2018-09-24T16:21:22.437Z,49.58
2018-09-24T16:23:57.154Z,49.99
2018-09-24T16:26:31.970Z,50.17
2018-09-24T16:29:06.774Z,50.17
2018-09-24T16:31:41.501Z,51.27
2018-09-24T16:34:16.413Z,51.46
2018-09-24T16:36:51.203Z,51.31
2018-09-24T16:39:25.829Z,51.96
2018-09-24T16:42:00.760Z,51.98
2018-09-24T16:44:35.623Z,53.05
2018-09-24T16:47:11.566Z,53.51
2018-09-24T16:49:46.405Z,54.27
2018-09-24T16:52:22.311Z,54.46
2018-09-24T16:54:57.088Z,55.06
2018-09-24T16:57:31.907Z,55.33
2018-09-24T17:00:06.874Z,56.69
2018-09-24T17:02:43.691Z,56.60
2018-09-24T17:05:18.624Z,57.24
2018-09-24T17:07:53.555Z,58.08
2018-09-24T17:10:28.222Z,58.20
2018-09-24T17:13:03.128Z,58.26
2018-09-24T17:15:38.462Z,58.55
2018-09-24T17:18:13.227Z,59.43
2018-09-24T17:20:47.937Z,60.26
2018-09-24T17:23:22.655Z,59.99
2018-09-24T17:25:58.254Z,60.09
2018-09-24T17:28:33.030Z,60.50
2018-09-24T17:31:07.745Z,61.66
2018-09-24T17:33:42.514Z,61.90
2018-09-24T17:36:17.237Z,62.39
2018-09-24T17:38:52.140Z,62.63
2018-09-24T17:41:27.123Z,63.30
2018-09-24T17:44:01.985Z,63.63
2018-09-24T17:46:36.835Z,64.11
2018-09-24T17:49:11.752Z,64.75
2018-09-24T17:51:47.169Z,65.24
2018-09-24T17:54:21.946Z,65.52
2018-09-24T17:56:56.796Z,67.25
2018-09-24T17:59:31.600Z,67.21
2018-09-24T18:02:06.417Z,67.41
2018-09-24T18:04:41.338Z,67.32
2018-09-24T18:07:16.125Z,67.96
2018-09-24T18:09:50.805Z,68.11
2018-09-24T18:12:25.610Z,68.14
2018-09-24T18:15:00.488Z,68.54
2018-09-24T18:17:35.337Z,68.28
2018-09-24T18:20:11.570Z,69.12
2018-09-24T18:22:46.388Z,69.34
2018-09-24T18:25:21.923Z,69.57
2018-09-24T18:27:57.151Z,69.66
2018-09-24T18:30:32.442Z,69.64
2018-09-24T18:33:07.833Z,69.90
2018-09-24T18:35:43.164Z,70.21
2018-09-24T18:38:18.205Z,70.49
2018-09-24T18:40:54.202Z,70.26
2018-09-24T18:43:29.235Z,70.23
2018-09-24T18:46:05.372Z,70.40
2018-09-24T18:48:41.002Z,70.68
2018-09-24T18:51:16.238Z,70.64
2018-09-24T18:53:51.087Z,70.56
2018-09-24T18:56:26.647Z,71.27
2018-09-24T18:59:01.984Z,70.69
2018-09-24T19:01:36.885Z,70.85
2018-09-24T19:04:11.798Z,71.07
2018-09-24T19:06:47.242Z,71.37
2018-09-24T19:09:22.106Z,70.73
2018-09-24T19:11:56.729Z,70.96
2018-09-24T19:14:32.629Z,71.27
2018-09-24T19:17:07.511Z,71.06
2018-09-24T19:19:42.380Z,71.52
2018-09-24T19:22:17.199Z,71.38
2018-09-24T19:24:52.095Z,71.51
2018-09-24T19:27:26.814Z,71.64
2018-09-24T19:30:01.634Z,71.67
2018-09-24T19:32:36.322Z,71.69
2018-09-24T19:35:11.386Z,71.89
2018-09-24T19:37:46.045Z,71.30
2018-09-24T19:40:20.745Z,71.45
2018-09-24T19:42:55.845Z,71.84
2018-09-24T19:45:30.652Z,71.44
2018-09-24T19:48:05.485Z,71.81
2018-09-24T19:50:40.387Z,71.25
2018-09-24T19:53:15.088Z,71.38
2018-09-24T19:55:49.926Z,71.99
2018-09-24T19:58:24.798Z,71.45
2018-09-24T20:00:59.767Z,71.82
2018-09-24T20:03:34.680Z,72.33
2018-09-24T20:06:09.717Z,72.09
2018-09-24T20:08:48.382Z,72.50
2018-09-24T20:11:23.470Z,72.66
2018-09-24T20:13:58.271Z,72.54
2018-09-24T20:16:33.907Z,73.00
2018-09-24T20:19:08.582Z,73.25
2018-09-24T20:21:43.471Z,72.57
2018-09-24T20:24:18.248Z,73.35
2018-09-24T20:26:53.006Z,73.21
2018-09-24T20:29:27.769Z,73.37
2018-09-24T20:32:03.063Z,73.23
2018-09-24T20:34:37.825Z,73.29
2018-09-24T20:37:12.694Z,73.28
2018-09-24T20:39:47.569Z,72.89
2018-09-24T20:42:22.410Z,73.28
2018-09-24T20:44:57.189Z,73.58
2018-09-24T20:47:32.016Z,73.65
2018-09-24T20:50:06.834Z,73.74
2018-09-24T20:52:41.751Z,73.82
2018-09-24T20:55:16.480Z,73.74
2018-09-24T20:57:51.134Z,73.94
2018-09-24T21:00:25.884Z,73.77
2018-09-24T21:03:00.803Z,73.77
2018-09-24T21:05:35.545Z,74.10
2018-09-24T21:08:11.760Z,74.29
2018-09-24T21:10:46.462Z,74.29
2018-09-24T21:13:21.319Z,74.49
2018-09-24T21:15:56.018Z,74.35
2018-09-24T21:18:30.984Z,74.54
2018-09-24T21:21:05.845Z,74.60
2018-09-24T21:23:40.647Z,74.36
2018-09-24T21:26:15.490Z,73.98
2018-09-24T21:28:50.730Z,74.02
2018-09-24T21:31:25.456Z,74.59
2018-09-24T21:34:00.372Z,74.77
2018-09-24T21:36:35.243Z,75.10
2018-09-24T21:39:10.900Z,75.14
2018-09-24T21:41:45.825Z,75.19
2018-09-24T21:44:20.656Z,75.78
2018-09-24T21:46:55.483Z,76.14
2018-09-24T21:49:30.153Z,76.40
2018-09-24T21:52:05.521Z,76.06
2018-09-24T21:54:40.216Z,76.19
2018-09-24T21:57:15.064Z,76.56
2018-09-24T21:59:49.837Z,76.63
2018-09-24T22:02:27.608Z,76.83
2018-09-24T22:05:02.337Z,76.75
2018-09-24T22:07:41.768Z,76.73
2018-09-24T22:10:16.690Z,77.04
2018-09-24T22:12:51.594Z,77.18
2018-09-24T22:15:26.378Z,77.03
2018-09-24T22:18:01.229Z,76.98
2018-09-24T22:20:35.972Z,77.12
2018-09-24T22:23:11.801Z,77.33
2018-09-24T22:25:46.619Z,76.93
2018-09-24T22:28:21.394Z,77.16
2018-09-24T22:30:56.072Z,76.92
2018-09-24T22:33:30.754Z,77.16
2018-09-24T22:36:05.427Z,77.20
2018-09-24T22:38:40.234Z,77.07
2018-09-24T22:41:14.881Z,77.30
2018-09-24T22:43:49.691Z,77.46
2018-09-24T22:46:24.504Z,77.56
2018-09-24T22:48:59.475Z,77.40
2018-09-24T22:51:34.321Z,77.63
2018-09-24T22:54:09.045Z,77.86
2018-09-24T22:56:43.841Z,77.79
2018-09-24T22:59:18.797Z,77.63
2018-09-24T23:01:53.609Z,77.50
2018-09-24T23:04:28.438Z,77.64
2018-09-24T23:07:03.183Z,77.13
2018-09-24T23:09:38.023Z,77.30
2018-09-24T23:12:12.738Z,77.82
2018-09-24T23:14:47.461Z,77.85
2018-09-24T23:17:23.001Z,77.60
2018-09-24T23:19:57.785Z,77.33
2018-09-24T23:22:39.379Z,77.59
2018-09-24T23:25:20.982Z,77.58
2018-09-24T23:28:02.524Z,77.58
2018-09-24T23:30:43.531Z,77.69
2018-09-24T23:33:24.772Z,77.49
2018-09-24T23:36:06.862Z,77.66
2018-09-24T23:38:47.904Z,77.60
2018-09-24T23:41:27.910Z,77.75
2018-09-24T23:44:08.730Z,77.15
2018-09-24T23:46:49.530Z,77.81
2018-09-24T23:49:30.532Z,77.41
2018-09-24T23:52:11.548Z,77.88
2018-09-24T23:54:52.397Z,77.98
2018-09-24T23:57:33.432Z,78.26
